sensor_id;sensor_type;location;lat;lon;timestamp;P1;durP1;ratioP1;P2;durP2;ratioP2
59054;SDS011;44845;51.444;7.460;2022-10-20T00:01:04;10.60;;;3.90;;
59054;SDS011;44845;51.444;7.460;2022-10-20T00:03:30;6.45;;;4.05;;
59054;SDS011;44845;51.444;7.460;2022-10-20T00:06:04;12.82;;;4.28;;
59054;SDS011;44845;51.444;7.460;2022-10-20T00:08:41;6.20;;;3.45;;
59054;SDS011;44845;51.444;7.460;2022-10-20T00:11:08;4.35;;;3.10;;
59054;SDS011;44845;51.444;7.460;2022-10-20T00:13:34;4.53;;;3.22;;
59054;SDS011;44845;51.444;7.460;2022-10-20T00:16:00;14.88;;;3.97;;
59054;SDS011;44845;51.444;7.460;2022-10-20T00:18:25;5.10;;;3.58;;
59054;SDS011;44845;51.444;7.460;2022-10-20T00:20:51;5.72;;;3.55;;
59054;SDS011;44845;51.444;7.460;2022-10-20T00:23:17;8.30;;;3.60;;
59054;SDS011;44845;51.444;7.460;2022-10-20T00:25:43;4.88;;;4.03;;
59054;SDS011;44845;51.444;7.460;2022-10-20T00:28:08;8.15;;;3.92;;
59054;SDS011;44845;51.444;7.460;2022-10-20T00:30:34;7.55;;;4.18;;
59054;SDS011;44845;51.444;7.460;2022-10-20T00:33:00;6.03;;;3.58;;
59054;SDS011;44845;51.444;7.460;2022-10-20T00:35:27;6.43;;;3.85;;
59054;SDS011;44845;51.444;7.460;2022-10-20T00:37:52;6.78;;;3.80;;
59054;SDS011;44845;51.444;7.460;2022-10-20T00:40:18;7.72;;;3.35;;
59054;SDS011;44845;51.444;7.460;2022-10-20T00:42:43;9.13;;;3.75;;
59054;SDS011;44845;51.444;7.460;2022-10-20T00:45:17;11.82;;;3.78;;
59054;SDS011;44845;51.444;7.460;2022-10-20T00:47:45;8.23;;;3.87;;
59054;SDS011;44845;51.444;7.460;2022-10-20T00:52:50;6.28;;;3.95;;
59054;SDS011;44845;51.444;7.460;2022-10-20T00:55:22;6.93;;;4.05;;
59054;SDS011;44845;51.444;7.460;2022-10-20T00:57:51;8.70;;;4.03;;
59054;SDS011;44845;51.444;7.460;2022-10-20T01:00:18;11.75;;;4.60;;
59054;SDS011;44845;51.444;7.460;2022-10-20T01:02:43;8.15;;;4.15;;
59054;SDS011;44845;51.444;7.460;2022-10-20T01:05:09;7.07;;;4.30;;
59054;SDS011;44845;51.444;7.460;2022-10-20T01:07:35;4.38;;;3.97;;
59054;SDS011;44845;51.444;7.460;2022-10-20T01:10:01;8.48;;;4.07;;
59054;SDS011;44845;51.444;7.460;2022-10-20T01:12:35;6.28;;;3.95;;
59054;SDS011;44845;51.444;7.460;2022-10-20T01:15:34;5.35;;;4.20;;
59054;SDS011;44845;51.444;7.460;2022-10-20T01:29:43;10.50;;;4.50;;
59054;SDS011;44845;51.444;7.460;2022-10-20T01:32:23;8.18;;;5.30;;
59054;SDS011;44845;51.444;7.460;2022-10-20T01:37:34;5.82;;;4.38;;
59054;SDS011;44845;51.444;7.460;2022-10-20T01:42:55;7.43;;;4.45;;
59054;SDS011;44845;51.444;7.460;2022-10-20T01:45:23;6.25;;;4.05;;
59054;SDS011;44845;51.444;7.460;2022-10-20T01:47:51;8.60;;;4.63;;
59054;SDS011;44845;51.444;7.460;2022-10-20T01:50:18;10.85;;;4.53;;
59054;SDS011;44845;51.444;7.460;2022-10-20T01:52:45;6.03;;;4.45;;
59054;SDS011;44845;51.444;7.460;2022-10-20T01:55:11;7.57;;;4.57;;
59054;SDS011;44845;51.444;7.460;2022-10-20T01:57:46;7.75;;;5.95;;
59054;SDS011;44845;51.444;7.460;2022-10-20T02:00:34;8.13;;;5.85;;
59054;SDS011;44845;51.444;7.460;2022-10-20T02:11:38;5.75;;;4.53;;
59054;SDS011;44845;51.444;7.460;2022-10-20T02:14:17;11.43;;;4.45;;
59054;SDS011;44845;51.444;7.460;2022-10-20T02:16:49;7.35;;;4.10;;
59054;SDS011;44845;51.444;7.460;2022-10-20T02:19:18;6.30;;;4.00;;
59054;SDS011;44845;51.444;7.460;2022-10-20T02:21:46;6.47;;;4.50;;
59054;SDS011;44845;51.444;7.460;2022-10-20T02:24:13;8.38;;;4.60;;
59054;SDS011;44845;51.444;7.460;2022-10-20T02:26:40;8.48;;;4.80;;
59054;SDS011;44845;51.444;7.460;2022-10-20T02:29:13;6.63;;;4.88;;
59054;SDS011;44845;51.444;7.460;2022-10-20T02:31:41;6.90;;;4.97;;
59054;SDS011;44845;51.444;7.460;2022-10-20T02:34:08;5.70;;;5.05;;
59054;SDS011;44845;51.444;7.460;2022-10-20T02:36:36;11.82;;;6.25;;
59054;SDS011;44845;51.444;7.460;2022-10-20T02:39:03;7.90;;;5.88;;
59054;SDS011;44845;51.444;7.460;2022-10-20T02:41:29;7.28;;;4.95;;
59054;SDS011;44845;51.444;7.460;2022-10-20T02:43:55;9.05;;;4.72;;
59054;SDS011;44845;51.444;7.460;2022-10-20T02:46:20;8.40;;;4.28;;
59054;SDS011;44845;51.444;7.460;2022-10-20T02:48:46;6.63;;;4.68;;
59054;SDS011;44845;51.444;7.460;2022-10-20T02:51:12;11.38;;;5.40;;
59054;SDS011;44845;51.444;7.460;2022-10-20T02:53:37;13.20;;;5.45;;
59054;SDS011;44845;51.444;7.460;2022-10-20T02:56:03;8.20;;;5.65;;
59054;SDS011;44845;51.444;7.460;2022-10-20T02:58:28;10.85;;;5.32;;
59054;SDS011;44845;51.444;7.460;2022-10-20T03:00:53;7.75;;;5.03;;
59054;SDS011;44845;51.444;7.460;2022-10-20T03:03:19;10.77;;;5.05;;
59054;SDS011;44845;51.444;7.460;2022-10-20T03:05:44;10.93;;;5.00;;
59054;SDS011;44845;51.444;7.460;2022-10-20T03:08:11;11.45;;;5.68;;
59054;SDS011;44845;51.444;7.460;2022-10-20T03:13:28;7.82;;;5.47;;
59054;SDS011;44845;51.444;7.460;2022-10-20T03:15:53;8.65;;;5.00;;
59054;SDS011;44845;51.444;7.460;2022-10-20T03:18:18;13.45;;;5.45;;
59054;SDS011;44845;51.444;7.460;2022-10-20T03:20:44;8.00;;;4.75;;
59054;SDS011;44845;51.444;7.460;2022-10-20T03:23:09;11.48;;;5.40;;
59054;SDS011;44845;51.444;7.460;2022-10-20T03:25:34;7.75;;;5.30;;
59054;SDS011;44845;51.444;7.460;2022-10-20T03:28:00;7.20;;;5.03;;
59054;SDS011;44845;51.444;7.460;2022-10-20T03:30:25;8.23;;;5.22;;
59054;SDS011;44845;51.444;7.460;2022-10-20T03:32:51;6.57;;;4.55;;
59054;SDS011;44845;51.444;7.460;2022-10-20T03:35:16;6.88;;;4.93;;
59054;SDS011;44845;51.444;7.460;2022-10-20T03:37:42;6.90;;;4.93;;
59054;SDS011;44845;51.444;7.460;2022-10-20T03:40:07;10.50;;;5.13;;
59054;SDS011;44845;51.444;7.460;2022-10-20T03:42:33;7.32;;;4.55;;
59054;SDS011;44845;51.444;7.460;2022-10-20T03:44:58;7.50;;;5.00;;
59054;SDS011;44845;51.444;7.460;2022-10-20T03:47:23;8.32;;;5.13;;
59054;SDS011;44845;51.444;7.460;2022-10-20T03:49:49;8.85;;;4.75;;
59054;SDS011;44845;51.444;7.460;2022-10-20T03:52:14;8.27;;;5.05;;
59054;SDS011;44845;51.444;7.460;2022-10-20T03:54:39;12.07;;;5.57;;
59054;SDS011;44845;51.444;7.460;2022-10-20T03:57:05;8.13;;;5.38;;
59054;SDS011;44845;51.444;7.460;2022-10-20T03:59:30;6.53;;;5.15;;
59054;SDS011;44845;51.444;7.460;2022-10-20T04:01:56;6.68;;;5.30;;
59054;SDS011;44845;51.444;7.460;2022-10-20T04:04:21;5.82;;;4.85;;
59054;SDS011;44845;51.444;7.460;2022-10-20T04:06:46;9.30;;;5.00;;
59054;SDS011;44845;51.444;7.460;2022-10-20T04:09:12;9.50;;;5.35;;
59054;SDS011;44845;51.444;7.460;2022-10-20T04:11:37;13.63;;;5.55;;
59054;SDS011;44845;51.444;7.460;2022-10-20T04:14:02;7.85;;;5.22;;
59054;SDS011;44845;51.444;7.460;2022-10-20T04:16:28;13.02;;;5.70;;
59054;SDS011;44845;51.444;7.460;2022-10-20T04:18:54;6.18;;;5.05;;
59054;SDS011;44845;51.444;7.460;2022-10-20T04:21:20;8.95;;;5.07;;
59054;SDS011;44845;51.444;7.460;2022-10-20T04:23:45;11.82;;;5.43;;
59054;SDS011;44845;51.444;7.460;2022-10-20T04:26:11;8.43;;;5.07;;
59054;SDS011;44845;51.444;7.460;2022-10-20T04:28:39;7.60;;;5.30;;
59054;SDS011;44845;51.444;7.460;2022-10-20T04:31:05;7.75;;;5.70;;
59054;SDS011;44845;51.444;7.460;2022-10-20T04:33:31;9.45;;;4.95;;
59054;SDS011;44845;51.444;7.460;2022-10-20T04:35:57;9.13;;;4.97;;
59054;SDS011;44845;51.444;7.460;2022-10-20T04:38:30;10.82;;;5.05;;
59054;SDS011;44845;51.444;7.460;2022-10-20T04:40:56;7.78;;;4.80;;
59054;SDS011;44845;51.444;7.460;2022-10-20T04:43:24;7.93;;;5.10;;
59054;SDS011;44845;51.444;7.460;2022-10-20T04:45:49;5.18;;;4.07;;
59054;SDS011;44845;51.444;7.460;2022-10-20T04:48:15;7.05;;;4.40;;
59054;SDS011;44845;51.444;7.460;2022-10-20T04:50:41;4.38;;;3.97;;
59054;SDS011;44845;51.444;7.460;2022-10-20T04:53:07;6.75;;;4.38;;
59054;SDS011;44845;51.444;7.460;2022-10-20T04:55:33;6.25;;;4.00;;
59054;SDS011;44845;51.444;7.460;2022-10-20T04:57:59;6.93;;;4.10;;
59054;SDS011;44845;51.444;7.460;2022-10-20T05:00:24;4.95;;;3.88;;
59054;SDS011;44845;51.444;7.460;2022-10-20T05:02:50;5.00;;;3.47;;
59054;SDS011;44845;51.444;7.460;2022-10-20T05:05:15;4.72;;;3.83;;
59054;SDS011;44845;51.444;7.460;2022-10-20T05:07:40;5.25;;;4.43;;
59054;SDS011;44845;51.444;7.460;2022-10-20T05:10:06;5.00;;;3.83;;
59054;SDS011;44845;51.444;7.460;2022-10-20T05:12:32;6.18;;;3.85;;
59054;SDS011;44845;51.444;7.460;2022-10-20T05:14:57;4.05;;;3.35;;
59054;SDS011;44845;51.444;7.460;2022-10-20T05:17:23;7.20;;;3.72;;
59054;SDS011;44845;51.444;7.460;2022-10-20T05:19:48;5.88;;;4.13;;
59054;SDS011;44845;51.444;7.460;2022-10-20T05:22:13;6.95;;;3.97;;
59054;SDS011;44845;51.444;7.460;2022-10-20T05:24:39;6.60;;;3.92;;
59054;SDS011;44845;51.444;7.460;2022-10-20T05:27:04;13.63;;;4.10;;
59054;SDS011;44845;51.444;7.460;2022-10-20T05:29:29;9.07;;;4.35;;
59054;SDS011;44845;51.444;7.460;2022-10-20T05:31:55;7.07;;;4.00;;
59054;SDS011;44845;51.444;7.460;2022-10-20T05:34:20;7.53;;;3.70;;
59054;SDS011;44845;51.444;7.460;2022-10-20T05:36:45;7.78;;;4.25;;
59054;SDS011;44845;51.444;7.460;2022-10-20T05:39:11;5.97;;;4.35;;
59054;SDS011;44845;51.444;7.460;2022-10-20T05:41:37;8.07;;;4.97;;
59054;SDS011;44845;51.444;7.460;2022-10-20T05:44:03;7.47;;;4.97;;
59054;SDS011;44845;51.444;7.460;2022-10-20T05:46:30;8.68;;;5.18;;
59054;SDS011;44845;51.444;7.460;2022-10-20T05:48:58;12.45;;;4.50;;
59054;SDS011;44845;51.444;7.460;2022-10-20T05:51:26;6.28;;;4.97;;
59054;SDS011;44845;51.444;7.460;2022-10-20T05:53:53;6.80;;;4.70;;
59054;SDS011;44845;51.444;7.460;2022-10-20T05:56:20;8.05;;;4.93;;
59054;SDS011;44845;51.444;7.460;2022-10-20T05:58:46;7.93;;;5.32;;
59054;SDS011;44845;51.444;7.460;2022-10-20T06:03:52;6.47;;;4.70;;
59054;SDS011;44845;51.444;7.460;2022-10-20T06:06:20;6.78;;;4.75;;
59054;SDS011;44845;51.444;7.460;2022-10-20T06:08:47;8.05;;;4.90;;
59054;SDS011;44845;51.444;7.460;2022-10-20T06:11:14;13.23;;;4.88;;
59054;SDS011;44845;51.444;7.460;2022-10-20T06:13:40;11.38;;;5.00;;
59054;SDS011;44845;51.444;7.460;2022-10-20T06:16:07;8.65;;;4.82;;
59054;SDS011;44845;51.444;7.460;2022-10-20T06:18:35;13.85;;;5.00;;
59054;SDS011;44845;51.444;7.460;2022-10-20T06:21:06;8.77;;;4.55;;
59054;SDS011;44845;51.444;7.460;2022-10-20T06:23:34;8.60;;;4.88;;
59054;SDS011;44845;51.444;7.460;2022-10-20T06:26:00;7.13;;;4.68;;
59054;SDS011;44845;51.444;7.460;2022-10-20T06:28:28;6.63;;;5.07;;
59054;SDS011;44845;51.444;7.460;2022-10-20T06:30:54;9.98;;;4.95;;
59054;SDS011;44845;51.444;7.460;2022-10-20T06:33:20;6.70;;;4.28;;
59054;SDS011;44845;51.444;7.460;2022-10-20T06:35:45;7.00;;;4.70;;
59054;SDS011;44845;51.444;7.460;2022-10-20T06:38:10;6.93;;;4.95;;
59054;SDS011;44845;51.444;7.460;2022-10-20T06:40:36;9.60;;;4.65;;
59054;SDS011;44845;51.444;7.460;2022-10-20T06:43:01;12.68;;;5.13;;
59054;SDS011;44845;51.444;7.460;2022-10-20T06:45:26;7.65;;;4.70;;
59054;SDS011;44845;51.444;7.460;2022-10-20T06:47:52;6.13;;;4.03;;
59054;SDS011;44845;51.444;7.460;2022-10-20T06:50:17;10.30;;;5.10;;
59054;SDS011;44845;51.444;7.460;2022-10-20T06:52:42;13.48;;;4.88;;
59054;SDS011;44845;51.444;7.460;2022-10-20T06:55:08;8.82;;;5.00;;
59054;SDS011;44845;51.444;7.460;2022-10-20T06:57:33;9.02;;;4.70;;
59054;SDS011;44845;51.444;7.460;2022-10-20T06:59:59;7.68;;;4.72;;
59054;SDS011;44845;51.444;7.460;2022-10-20T07:02:24;9.25;;;5.05;;
59054;SDS011;44845;51.444;7.460;2022-10-20T07:04:49;5.95;;;4.72;;
59054;SDS011;44845;51.444;7.460;2022-10-20T07:07:15;8.10;;;4.70;;
59054;SDS011;44845;51.444;7.460;2022-10-20T07:09:40;6.88;;;4.57;;
59054;SDS011;44845;51.444;7.460;2022-10-20T07:12:05;8.40;;;4.35;;
59054;SDS011;44845;51.444;7.460;2022-10-20T07:14:31;6.45;;;4.25;;
59054;SDS011;44845;51.444;7.460;2022-10-20T07:16:56;9.10;;;4.50;;
59054;SDS011;44845;51.444;7.460;2022-10-20T07:19:21;9.40;;;4.25;;
59054;SDS011;44845;51.444;7.460;2022-10-20T07:21:47;5.80;;;4.57;;
59054;SDS011;44845;51.444;7.460;2022-10-20T07:24:12;10.63;;;4.82;;
59054;SDS011;44845;51.444;7.460;2022-10-20T07:26:39;8.82;;;4.22;;
59054;SDS011;44845;51.444;7.460;2022-10-20T07:29:05;6.13;;;4.07;;
59054;SDS011;44845;51.444;7.460;2022-10-20T07:31:32;4.88;;;4.25;;
59054;SDS011;44845;51.444;7.460;2022-10-20T07:34:00;9.15;;;4.40;;
59054;SDS011;44845;51.444;7.460;2022-10-20T07:36:28;11.00;;;4.70;;
59054;SDS011;44845;51.444;7.460;2022-10-20T07:38:56;7.28;;;4.18;;
59054;SDS011;44845;51.444;7.460;2022-10-20T07:41:22;6.75;;;3.92;;
59054;SDS011;44845;51.444;7.460;2022-10-20T07:43:49;7.10;;;3.97;;
59054;SDS011;44845;51.444;7.460;2022-10-20T07:46:14;11.07;;;4.07;;
59054;SDS011;44845;51.444;7.460;2022-10-20T07:48:40;6.07;;;3.65;;
59054;SDS011;44845;51.444;7.460;2022-10-20T07:53:48;8.80;;;4.20;;
59054;SDS011;44845;51.444;7.460;2022-10-20T07:56:14;9.55;;;5.05;;
59054;SDS011;44845;51.444;7.460;2022-10-20T07:58:40;11.93;;;4.70;;
59054;SDS011;44845;51.444;7.460;2022-10-20T08:01:06;5.63;;;4.13;;
59054;SDS011;44845;51.444;7.460;2022-10-20T08:03:32;9.98;;;4.10;;
59054;SDS011;44845;51.444;7.460;2022-10-20T08:05:58;8.65;;;4.45;;
59054;SDS011;44845;51.444;7.460;2022-10-20T08:08:24;10.10;;;4.38;;
59054;SDS011;44845;51.444;7.460;2022-10-20T08:10:49;4.60;;;4.03;;
59054;SDS011;44845;51.444;7.460;2022-10-20T08:13:15;8.63;;;4.35;;
59054;SDS011;44845;51.444;7.460;2022-10-20T08:15:40;9.52;;;4.03;;
59054;SDS011;44845;51.444;7.460;2022-10-20T08:18:05;9.05;;;4.68;;
59054;SDS011;44845;51.444;7.460;2022-10-20T08:20:31;8.85;;;4.43;;
59054;SDS011;44845;51.444;7.460;2022-10-20T08:22:56;8.57;;;4.57;;
59054;SDS011;44845;51.444;7.460;2022-10-20T08:25:22;7.93;;;4.30;;
59054;SDS011;44845;51.444;7.460;2022-10-20T08:27:47;6.78;;;4.65;;
59054;SDS011;44845;51.444;7.460;2022-10-20T08:30:13;11.07;;;4.93;;
59054;SDS011;44845;51.444;7.460;2022-10-20T08:32:38;13.18;;;4.47;;
59054;SDS011;44845;51.444;7.460;2022-10-20T08:35:04;8.18;;;4.35;;
59054;SDS011;44845;51.444;7.460;2022-10-20T08:37:30;8.18;;;4.50;;
59054;SDS011;44845;51.444;7.460;2022-10-20T08:39:56;7.90;;;4.95;;
59054;SDS011;44845;51.444;7.460;2022-10-20T08:42:21;8.15;;;4.63;;
59054;SDS011;44845;51.444;7.460;2022-10-20T08:44:47;9.30;;;4.45;;
59054;SDS011;44845;51.444;7.460;2022-10-20T08:49:55;7.65;;;5.50;;
59054;SDS011;44845;51.444;7.460;2022-10-20T08:52:21;10.48;;;4.57;;
59054;SDS011;44845;51.444;7.460;2022-10-20T08:54:49;6.68;;;4.15;;
59054;SDS011;44845;51.444;7.460;2022-10-20T08:57:20;9.07;;;4.47;;
59054;SDS011;44845;51.444;7.460;2022-10-20T08:59:49;9.02;;;4.47;;
59054;SDS011;44845;51.444;7.460;2022-10-20T09:02:17;10.90;;;4.47;;
59054;SDS011;44845;51.444;7.460;2022-10-20T09:04:51;10.38;;;4.55;;
59054;SDS011;44845;51.444;7.460;2022-10-20T09:09:49;9.15;;;5.28;;
59054;SDS011;44845;51.444;7.460;2022-10-20T09:12:15;7.88;;;4.88;;
59054;SDS011;44845;51.444;7.460;2022-10-20T09:14:42;8.90;;;4.25;;
59054;SDS011;44845;51.444;7.460;2022-10-20T09:17:14;10.00;;;4.93;;
59054;SDS011;44845;51.444;7.460;2022-10-20T09:19:45;6.35;;;4.57;;
59054;SDS011;44845;51.444;7.460;2022-10-20T09:22:16;7.45;;;4.22;;
59054;SDS011;44845;51.444;7.460;2022-10-20T09:24:46;11.65;;;5.18;;
59054;SDS011;44845;51.444;7.460;2022-10-20T09:27:46;5.47;;;4.97;;
59054;SDS011;44845;51.444;7.460;2022-10-20T09:32:42;5.72;;;4.80;;
59054;SDS011;44845;51.444;7.460;2022-10-20T09:37:43;7.93;;;5.30;;
59054;SDS011;44845;51.444;7.460;2022-10-20T09:40:15;11.52;;;4.93;;
59054;SDS011;44845;51.444;7.460;2022-10-20T09:42:44;7.68;;;4.47;;
59054;SDS011;44845;51.444;7.460;2022-10-20T09:47:50;8.55;;;4.50;;
59054;SDS011;44845;51.444;7.460;2022-10-20T09:50:24;10.10;;;4.32;;
59054;SDS011;44845;51.444;7.460;2022-10-20T09:52:53;10.35;;;4.32;;
59054;SDS011;44845;51.444;7.460;2022-10-20T09:57:58;9.52;;;4.32;;
59054;SDS011;44845;51.444;7.460;2022-10-20T10:00:27;10.52;;;4.07;;
59054;SDS011;44845;51.444;7.460;2022-10-20T10:05:56;5.82;;;4.28;;
59054;SDS011;44845;51.444;7.460;2022-10-20T10:08:24;9.15;;;4.13;;
59054;SDS011;44845;51.444;7.460;2022-10-20T10:11:14;9.70;;;4.30;;
59054;SDS011;44845;51.444;7.460;2022-10-20T10:13:43;11.05;;;4.47;;
59054;SDS011;44845;51.444;7.460;2022-10-20T10:16:14;8.98;;;4.65;;
59054;SDS011;44845;51.444;7.460;2022-10-20T10:18:42;8.82;;;4.68;;
59054;SDS011;44845;51.444;7.460;2022-10-20T10:21:10;11.15;;;4.95;;
59054;SDS011;44845;51.444;7.460;2022-10-20T10:23:52;10.02;;;4.72;;
59054;SDS011;44845;51.444;7.460;2022-10-20T10:28:58;13.68;;;5.13;;
59054;SDS011;44845;51.444;7.460;2022-10-20T10:31:24;11.55;;;5.00;;
59054;SDS011;44845;51.444;7.460;2022-10-20T10:34:08;9.93;;;5.20;;
59054;SDS011;44845;51.444;7.460;2022-10-20T10:36:35;9.27;;;5.47;;
59054;SDS011;44845;51.444;7.460;2022-10-20T10:39:02;9.68;;;5.18;;
59054;SDS011;44845;51.444;7.460;2022-10-20T10:41:34;8.25;;;4.82;;
59054;SDS011;44845;51.444;7.460;2022-10-20T10:47:06;8.48;;;5.07;;
59054;SDS011;44845;51.444;7.460;2022-10-20T10:49:56;8.82;;;5.53;;
59054;SDS011;44845;51.444;7.460;2022-10-20T10:52:50;11.27;;;5.82;;
59054;SDS011;44845;51.444;7.460;2022-10-20T10:55:37;10.88;;;5.32;;
59054;SDS011;44845;51.444;7.460;2022-10-20T11:01:22;8.07;;;4.68;;
59054;SDS011;44845;51.444;7.460;2022-10-20T11:04:15;9.77;;;5.30;;
59054;SDS011;44845;51.444;7.460;2022-10-20T11:06:47;12.30;;;5.35;;
59054;SDS011;44845;51.444;7.460;2022-10-20T11:09:59;20.92;;;5.93;;
59054;SDS011;44845;51.444;7.460;2022-10-20T11:21:39;10.77;;;4.95;;
59054;SDS011;44845;51.444;7.460;2022-10-20T11:24:22;6.85;;;5.20;;
59054;SDS011;44845;51.444;7.460;2022-10-20T11:30:01;16.92;;;5.57;;
59054;SDS011;44845;51.444;7.460;2022-10-20T11:32:44;11.63;;;5.45;;
59054;SDS011;44845;51.444;7.460;2022-10-20T11:41:00;16.13;;;5.10;;
59054;SDS011;44845;51.444;7.460;2022-10-20T11:43:31;12.60;;;5.35;;
59054;SDS011;44845;51.444;7.460;2022-10-20T11:46:04;11.10;;;5.90;;
59054;SDS011;44845;51.444;7.460;2022-10-20T11:51:13;13.20;;;5.45;;
59054;SDS011;44845;51.444;7.460;2022-10-20T11:54:03;12.77;;;6.22;;
59054;SDS011;44845;51.444;7.460;2022-10-20T11:59:59;12.70;;;6.57;;
59054;SDS011;44845;51.444;7.460;2022-10-20T12:08:27;7.95;;;5.68;;
59054;SDS011;44845;51.444;7.460;2022-10-20T12:19:16;11.02;;;5.88;;
59054;SDS011;44845;51.444;7.460;2022-10-20T12:21:55;11.88;;;5.80;;
59054;SDS011;44845;51.444;7.460;2022-10-20T12:27:27;12.38;;;6.00;;
59054;SDS011;44845;51.444;7.460;2022-10-20T12:33:08;10.20;;;5.55;;
59054;SDS011;44845;51.444;7.460;2022-10-20T12:38:37;15.75;;;6.40;;
59054;SDS011;44845;51.444;7.460;2022-10-20T12:41:04;12.60;;;6.28;;
59054;SDS011;44845;51.444;7.460;2022-10-20T12:43:33;18.48;;;6.07;;
59054;SDS011;44845;51.444;7.460;2022-10-20T12:46:10;11.65;;;6.60;;
59054;SDS011;44845;51.444;7.460;2022-10-20T12:48:42;13.30;;;6.47;;
59054;SDS011;44845;51.444;7.460;2022-10-20T12:51:17;12.25;;;6.60;;
59054;SDS011;44845;51.444;7.460;2022-10-20T12:53:51;21.92;;;6.72;;
59054;SDS011;44845;51.444;7.460;2022-10-20T12:56:20;16.65;;;6.60;;
59054;SDS011;44845;51.444;7.460;2022-10-20T12:59:07;10.80;;;6.82;;
59054;SDS011;44845;51.444;7.460;2022-10-20T13:15:25;12.82;;;7.95;;
59054;SDS011;44845;51.444;7.460;2022-10-20T13:17:53;12.68;;;6.97;;
59054;SDS011;44845;51.444;7.460;2022-10-20T13:20:23;15.13;;;8.02;;
59054;SDS011;44845;51.444;7.460;2022-10-20T13:22:53;15.57;;;7.75;;
59054;SDS011;44845;51.444;7.460;2022-10-20T13:25:39;15.88;;;7.88;;
59054;SDS011;44845;51.444;7.460;2022-10-20T13:28:29;13.38;;;7.53;;
59054;SDS011;44845;51.444;7.460;2022-10-20T13:38:59;12.93;;;7.32;;
59054;SDS011;44845;51.444;7.460;2022-10-20T13:44:28;14.40;;;7.97;;
59054;SDS011;44845;51.444;7.460;2022-10-20T13:47:24;18.63;;;7.53;;
59054;SDS011;44845;51.444;7.460;2022-10-20T13:50:09;25.88;;;8.88;;
59054;SDS011;44845;51.444;7.460;2022-10-20T13:52:39;11.50;;;7.85;;
59054;SDS011;44845;51.444;7.460;2022-10-20T13:55:06;14.95;;;8.05;;
59054;SDS011;44845;51.444;7.460;2022-10-20T13:57:42;9.30;;;7.40;;
59054;SDS011;44845;51.444;7.460;2022-10-20T14:02:51;15.35;;;8.45;;
59054;SDS011;44845;51.444;7.460;2022-10-20T14:05:24;13.68;;;8.77;;
59054;SDS011;44845;51.444;7.460;2022-10-20T14:07:52;12.18;;;8.30;;
59054;SDS011;44845;51.444;7.460;2022-10-20T14:10:20;15.80;;;8.63;;
59054;SDS011;44845;51.444;7.460;2022-10-20T14:12:45;13.52;;;8.20;;
59054;SDS011;44845;51.444;7.460;2022-10-20T14:15:11;13.23;;;7.93;;
59054;SDS011;44845;51.444;7.460;2022-10-20T14:17:40;13.80;;;8.75;;
59054;SDS011;44845;51.444;7.460;2022-10-20T14:20:06;19.70;;;8.40;;
59054;SDS011;44845;51.444;7.460;2022-10-20T14:22:45;12.02;;;8.48;;
59054;SDS011;44845;51.444;7.460;2022-10-20T14:25:11;18.88;;;8.23;;
59054;SDS011;44845;51.444;7.460;2022-10-20T14:27:37;17.60;;;8.15;;
59054;SDS011;44845;51.444;7.460;2022-10-20T14:30:03;15.20;;;8.48;;
59054;SDS011;44845;51.444;7.460;2022-10-20T14:32:30;18.25;;;9.00;;
59054;SDS011;44845;51.444;7.460;2022-10-20T14:35:00;14.15;;;8.80;;
59054;SDS011;44845;51.444;7.460;2022-10-20T14:37:51;15.25;;;9.48;;
59054;SDS011;44845;51.444;7.460;2022-10-20T14:40:18;17.00;;;9.10;;
59054;SDS011;44845;51.444;7.460;2022-10-20T14:42:48;12.85;;;8.65;;
59054;SDS011;44845;51.444;7.460;2022-10-20T14:45:21;11.45;;;8.15;;
59054;SDS011;44845;51.444;7.460;2022-10-20T14:47:48;14.80;;;9.00;;
59054;SDS011;44845;51.444;7.460;2022-10-20T14:52:50;13.40;;;8.70;;
59054;SDS011;44845;51.444;7.460;2022-10-20T14:58:31;14.63;;;8.38;;
59054;SDS011;44845;51.444;7.460;2022-10-20T15:07:04;12.18;;;8.15;;
59054;SDS011;44845;51.444;7.460;2022-10-20T15:09:39;17.30;;;8.27;;
59054;SDS011;44845;51.444;7.460;2022-10-20T15:12:12;13.48;;;8.95;;
59054;SDS011;44845;51.444;7.460;2022-10-20T15:14:39;15.70;;;8.07;;
59054;SDS011;44845;51.444;7.460;2022-10-20T15:17:28;13.30;;;7.88;;
59054;SDS011;44845;51.444;7.460;2022-10-20T15:22:59;11.13;;;8.23;;
59054;SDS011;44845;51.444;7.460;2022-10-20T15:25:27;14.50;;;9.07;;
59054;SDS011;44845;51.444;7.460;2022-10-20T15:27:54;15.98;;;9.05;;
59054;SDS011;44845;51.444;7.460;2022-10-20T15:30:21;16.95;;;8.93;;
59054;SDS011;44845;51.444;7.460;2022-10-20T15:32:47;19.95;;;8.52;;
59054;SDS011;44845;51.444;7.460;2022-10-20T15:35:14;15.95;;;8.93;;
59054;SDS011;44845;51.444;7.460;2022-10-20T15:37:42;13.52;;;8.85;;
59054;SDS011;44845;51.444;7.460;2022-10-20T15:40:08;18.05;;;8.88;;
59054;SDS011;44845;51.444;7.460;2022-10-20T15:42:33;17.77;;;9.05;;
59054;SDS011;44845;51.444;7.460;2022-10-20T15:44:59;14.48;;;9.55;;
59054;SDS011;44845;51.444;7.460;2022-10-20T15:47:24;23.13;;;8.82;;
59054;SDS011;44845;51.444;7.460;2022-10-20T15:49:49;14.27;;;9.30;;
59054;SDS011;44845;51.444;7.460;2022-10-20T15:52:15;13.98;;;8.40;;
59054;SDS011;44845;51.444;7.460;2022-10-20T15:54:41;17.63;;;8.80;;
59054;SDS011;44845;51.444;7.460;2022-10-20T15:57:07;19.50;;;8.27;;
59054;SDS011;44845;51.444;7.460;2022-10-20T15:59:32;15.18;;;8.88;;
59054;SDS011;44845;51.444;7.460;2022-10-20T16:01:57;13.95;;;9.10;;
59054;SDS011;44845;51.444;7.460;2022-10-20T16:04:23;22.95;;;9.30;;
59054;SDS011;44845;51.444;7.460;2022-10-20T16:06:50;13.55;;;7.80;;
59054;SDS011;44845;51.444;7.460;2022-10-20T16:09:18;15.23;;;8.23;;
59054;SDS011;44845;51.444;7.460;2022-10-20T16:11:43;17.35;;;8.90;;
59054;SDS011;44845;51.444;7.460;2022-10-20T16:14:09;16.65;;;7.43;;
59054;SDS011;44845;51.444;7.460;2022-10-20T16:16:34;12.10;;;8.30;;
59054;SDS011;44845;51.444;7.460;2022-10-20T16:19:00;17.23;;;8.10;;
59054;SDS011;44845;51.444;7.460;2022-10-20T16:21:25;11.40;;;8.05;;
59054;SDS011;44845;51.444;7.460;2022-10-20T16:23:51;14.43;;;7.53;;
59054;SDS011;44845;51.444;7.460;2022-10-20T16:26:16;19.80;;;7.85;;
59054;SDS011;44845;51.444;7.460;2022-10-20T16:28:42;14.98;;;7.95;;
59054;SDS011;44845;51.444;7.460;2022-10-20T16:31:08;11.70;;;7.05;;
59054;SDS011;44845;51.444;7.460;2022-10-20T16:33:35;12.27;;;8.25;;
59054;SDS011;44845;51.444;7.460;2022-10-20T16:36:02;16.25;;;8.43;;
59054;SDS011;44845;51.444;7.460;2022-10-20T16:38:31;23.42;;;9.27;;
59054;SDS011;44845;51.444;7.460;2022-10-20T16:41:00;17.70;;;7.68;;
59054;SDS011;44845;51.444;7.460;2022-10-20T16:43:27;12.63;;;8.05;;
59054;SDS011;44845;51.444;7.460;2022-10-20T16:45:53;19.00;;;7.72;;
59054;SDS011;44845;51.444;7.460;2022-10-20T16:48:19;13.18;;;7.43;;
59054;SDS011;44845;51.444;7.460;2022-10-20T16:50:45;18.67;;;7.95;;
59054;SDS011;44845;51.444;7.460;2022-10-20T16:53:11;13.32;;;7.45;;
59054;SDS011;44845;51.444;7.460;2022-10-20T16:55:36;14.68;;;7.53;;
59054;SDS011;44845;51.444;7.460;2022-10-20T16:58:01;13.48;;;7.30;;
59054;SDS011;44845;51.444;7.460;2022-10-20T17:00:27;16.40;;;7.75;;
59054;SDS011;44845;51.444;7.460;2022-10-20T17:02:52;20.17;;;8.07;;
59054;SDS011;44845;51.444;7.460;2022-10-20T17:05:20;12.20;;;7.70;;
59054;SDS011;44845;51.444;7.460;2022-10-20T17:07:46;18.42;;;7.78;;
59054;SDS011;44845;51.444;7.460;2022-10-20T17:10:12;14.77;;;8.00;;
59054;SDS011;44845;51.444;7.460;2022-10-20T17:12:37;16.13;;;8.77;;
59054;SDS011;44845;51.444;7.460;2022-10-20T17:15:03;17.98;;;8.23;;
59054;SDS011;44845;51.444;7.460;2022-10-20T17:17:28;22.55;;;8.57;;
59054;SDS011;44845;51.444;7.460;2022-10-20T17:19:54;13.27;;;7.68;;
59054;SDS011;44845;51.444;7.460;2022-10-20T17:22:19;15.85;;;7.90;;